Time;durP1;ratioP1;P1;durP2;ratioP2;P2;SDS_P1;SDS_P2;PMS_P1;PMS_P2;Temp;Humidity;BMP_temperature;BMP_pressure;BME280_temperature;BME280_humidity;BME280_pressure;Samples;Min_cycle;Max_cycle;Signal;HPM_P1;HPM_P2
2021/05/10 00:00:07;;;;;;;38.90;9.75;;;8.20;99.90;;;;;;5083693;28;20238;-77
2021/05/10 00:02:32;;;;;;;98.20;14.35;;;8.20;99.90;;;;;;5104508;28;20200;-77
2021/05/10 00:04:58;;;;;;;70.22;12.18;;;8.20;99.90;;;;;;5100170;28;20565;-77
2021/05/10 00:07:24;;;;;;;109.03;13.23;;;8.20;99.90;;;;;;5098456;28;20203;-78
2021/05/10 00:09:50;;;;;;;20.17;9.52;;;8.20;99.90;;;;;;5101879;28;20199;-77
2021/05/10 00:12:16;;;;;;;17.83;8.80;;;8.20;99.90;;;;;;5089063;28;20207;-78
2021/05/10 00:14:44;;;;;;;69.72;11.82;;;8.20;99.90;;;;;;5102668;28;20673;-78
2021/05/10 00:17:10;;;;;;;16.95;8.70;;;8.20;99.90;;;;;;5082574;28;20191;-78
2021/05/10 00:19:36;;;;;;;83.63;13.80;;;8.20;99.90;;;;;;5101636;28;20280;-77
2021/05/10 00:22:02;;;;;;;77.60;12.93;;;8.20;99.90;;;;;;5103680;28;20198;-78
2021/05/10 00:24:28;;;;;;;17.70;9.35;;;8.20;99.90;;;;;;5099123;28;20203;-78
2021/05/10 00:26:54;;;;;;;97.03;15.32;;;8.30;99.90;;;;;;5082421;28;20293;-78
2021/05/10 00:29:20;;;;;;;25.45;10.68;;;8.20;99.90;;;;;;5101667;28;20278;-78
2021/05/10 00:31:46;;;;;;;18.95;9.40;;;8.30;99.90;;;;;;5099061;28;20314;-78
2021/05/10 00:34:13;;;;;;;104.07;14.38;;;8.30;99.90;;;;;;5097909;28;20721;-78
2021/05/10 00:36:38;;;;;;;294.70;22.80;;;8.30;99.90;;;;;;5103321;28;20330;-78
2021/05/10 00:39:06;;;;;;;51.05;11.63;;;8.30;99.90;;;;;;5101420;28;20312;-78
2021/05/10 00:41:32;;;;;;;24.35;11.35;;;8.30;99.90;;;;;;5089653;28;20237;-79
2021/05/10 00:43:58;;;;;;;430.48;25.45;;;8.30;99.90;;;;;;5104573;28;20995;-78
2021/05/10 00:46:24;;;;;;;20.40;9.45;;;8.30;99.90;;;;;;5105704;28;20187;-78
2021/05/10 00:48:50;;;;;;;30.17;11.30;;;8.30;99.90;;;;;;5085241;28;20204;-78
2021/05/10 00:51:16;;;;;;;19.05;9.95;;;8.30;99.90;;;;;;5087560;28;20199;-77
2021/05/10 00:53:42;;;;;;;289.35;23.02;;;8.30;99.90;;;;;;5103219;28;20196;-78
2021/05/10 00:56:08;;;;;;;135.15;16.30;;;8.40;99.90;;;;;;5104604;28;20199;-78
2021/05/10 00:58:33;;;;;;;21.38;10.98;;;8.30;99.90;;;;;;5101445;28;20819;-78
2021/05/10 01:01:00;;;;;;;169.48;16.90;;;8.40;99.90;;;;;;5087404;28;20309;-78
2021/05/10 01:03:26;;;;;;;21.58;10.60;;;8.40;99.90;;;;;;5078970;28;20195;-78
2021/05/10 01:05:52;;;;;;;109.03;14.43;;;8.40;99.90;;;;;;5103426;28;20215;-78
2021/05/10 01:08:18;;;;;;;276.25;20.88;;;8.40;99.90;;;;;;5105974;28;20187;-78
2021/05/10 01:10:45;;;;;;;55.50;11.82;;;8.40;99.90;;;;;;5104808;28;20195;-78
2021/05/10 01:13:11;;;;;;;26.63;12.20;;;8.40;99.90;;;;;;5080569;28;20292;-78
2021/05/10 01:15:39;;;;;;;291.10;22.90;;;8.40;99.90;;;;;;5087120;28;20215;-78
2021/05/10 01:18:04;;;;;;;22.42;10.63;;;8.40;99.90;;;;;;5104392;28;20623;-78
2021/05/10 01:20:33;;;;;;;20.48;10.80;;;8.40;99.90;;;;;;5100042;28;20224;-78
2021/05/10 01:22:59;;;;;;;47.42;13.35;;;8.40;99.90;;;;;;5105560;27;20202;-78
2021/05/10 01:25:27;;;;;;;17.48;9.80;;;8.40;99.90;;;;;;5083498;28;20203;-78
2021/05/10 01:27:54;;;;;;;21.85;11.00;;;8.40;99.90;;;;;;5084145;28;20210;-78
2021/05/10 01:30:31;;;;;;;38.58;13.95;;;8.50;99.90;;;;;;5087852;28;20222;-78
2021/05/10 01:32:57;;;;;;;77.10;15.10;;;8.40;99.90;;;;;;5085996;28;20211;-78
2021/05/10 01:35:26;;;;;;;322.95;24.88;;;8.50;99.90;;;;;;5100437;28;20270;-78
2021/05/10 01:37:52;;;;;;;234.95;22.48;;;8.50;99.90;;;;;;5085686;28;20210;-79
2021/05/10 01:40:18;;;;;;;164.50;21.30;;;8.60;99.90;;;;;;5087290;28;20282;-78
2021/05/10 01:42:44;;;;;;;22.65;11.90;;;8.60;99.90;;;;;;5086778;28;20897;-78
2021/05/10 01:45:10;;;;;;;20.83;10.82;;;8.60;99.90;;;;;;5102309;28;20290;-79
2021/05/10 01:47:36;;;;;;;99.25;13.98;;;8.50;99.90;;;;;;5103246;28;20203;-78
2021/05/10 01:50:21;;;;;;;210.65;20.48;;;8.50;99.90;;;;;;5103633;28;20206;-78
2021/05/10 01:52:48;;;;;;;178.93;20.73;;;8.50;99.90;;;;;;5104099;28;20203;-78
2021/05/10 01:55:15;;;;;;;46.55;14.68;;;8.60;99.90;;;;;;5103643;28;20192;-79
2021/05/10 01:57:41;;;;;;;57.47;14.18;;;8.60;99.90;;;;;;5103848;28;20187;-78
2021/05/10 02:00:12;;;;;;;356.52;26.73;;;8.60;99.90;;;;;;5101816;28;20694;-78
2021/05/10 02:02:39;;;;;;;23.48;11.90;;;8.60;99.90;;;;;;5082766;28;20203;-79
2021/05/10 02:05:10;;;;;;;349.25;26.98;;;8.60;99.90;;;;;;5075408;28;20223;-80
2021/05/10 02:07:37;;;;;;;114.82;17.85;;;8.60;99.90;;;;;;5102680;28;20278;-79
2021/05/10 02:10:08;;;;;;;74.95;15.73;;;8.60;99.90;;;;;;5102589;28;20195;-79
2021/05/10 02:12:34;;;;;;;32.38;13.15;;;8.60;99.90;;;;;;5101068;28;20738;-79
2021/05/10 02:15:00;;;;;;;98.50;15.70;;;8.60;99.90;;;;;;5103756;28;20195;-79
2021/05/10 02:17:26;;;;;;;21.67;11.13;;;8.60;99.90;;;;;;5086186;28;20205;-78
2021/05/10 02:19:51;;;;;;;32.45;13.73;;;8.60;99.90;;;;;;5103626;28;20289;-78
2021/05/10 02:22:17;;;;;;;126.03;17.60;;;8.60;99.90;;;;;;5102525;28;20302;-78
2021/05/10 02:24:43;;;;;;;20.00;10.77;;;8.60;99.90;;;;;;5104758;28;20649;-78
2021/05/10 02:27:09;;;;;;;39.10;12.43;;;8.60;99.90;;;;;;5080223;28;20200;-78
2021/05/10 02:29:34;;;;;;;43.13;12.80;;;8.60;99.90;;;;;;5102847;28;20203;-78
2021/05/10 02:32:00;;;;;;;169.75;22.23;;;8.70;99.90;;;;;;5084810;28;20749;-78
2021/05/10 02:34:26;;;;;;;123.25;19.48;;;8.70;99.90;;;;;;5101860;28;20793;-79
2021/05/10 02:36:52;;;;;;;54.92;15.45;;;8.70;99.90;;;;;;5101852;28;20197;-78
2021/05/10 02:39:18;;;;;;;174.38;21.65;;;8.80;99.90;;;;;;5086263;28;20677;-77
2021/05/10 02:41:43;;;;;;;98.05;17.55;;;8.80;99.90;;;;;;5101693;28;20211;-78
2021/05/10 02:44:10;;;;;;;423.65;29.73;;;8.90;99.90;;;;;;5085392;28;20596;-78
2021/05/10 02:46:35;;;;;;;291.50;23.45;;;8.90;99.90;;;;;;5101840;28;20599;-80
2021/05/10 02:49:01;;;;;;;105.18;15.95;;;9.00;99.90;;;;;;5103333;28;20219;-78
2021/05/10 02:51:27;;;;;;;72.65;17.60;;;9.00;99.90;;;;;;5103800;28;20238;-78
2021/05/10 02:53:53;;;;;;;68.10;15.10;;;9.00;99.90;;;;;;5101182;28;20287;-77
2021/05/10 02:56:18;;;;;;;95.82;16.88;;;9.00;99.90;;;;;;5084892;28;21058;-80
2021/05/10 02:58:44;;;;;;;411.33;29.83;;;9.00;99.90;;;;;;5102219;28;20202;-77
2021/05/10 03:01:10;;;;;;;488.55;33.05;;;9.00;99.90;;;;;;5081266;28;20200;-78
2021/05/10 03:03:35;;;;;;;656.42;44.60;;;9.00;99.90;;;;;;5082827;28;20716;-77
2021/05/10 03:06:01;;;;;;;488.20;30.60;;;9.10;99.90;;;;;;5102838;28;20217;-78
2021/05/10 03:08:27;;;;;;;164.98;16.58;;;9.10;99.90;;;;;;5076030;28;20669;-77
2021/05/10 03:10:53;;;;;;;167.40;21.13;;;9.10;99.90;;;;;;5105766;28;20200;-77
2021/05/10 03:13:19;;;;;;;576.75;32.97;;;9.20;99.90;;;;;;5101589;28;20191;-78
2021/05/10 03:15:44;;;;;;;134.32;18.08;;;9.20;99.90;;;;;;5084830;28;20913;-78
2021/05/10 03:18:10;;;;;;;563.60;35.30;;;9.20;99.90;;;;;;5106035;28;20611;-78
2021/05/10 03:20:35;;;;;;;354.23;28.08;;;9.20;99.90;;;;;;5103128;28;20713;-78
2021/05/10 03:23:01;;;;;;;429.60;34.45;;;9.20;99.90;;;;;;5079964;28;20691;-78
2021/05/10 03:25:27;;;;;;;548.63;39.33;;;9.30;99.90;;;;;;5098647;28;20282;-78
2021/05/10 03:27:53;;;;;;;451.55;32.70;;;9.30;99.90;;;;;;5086343;28;20192;-78
2021/05/10 03:30:24;;;;;;;535.35;35.53;;;9.30;99.90;;;;;;5102910;28;20219;-78
2021/05/10 03:32:51;;;;;;;342.25;30.30;;;9.40;99.90;;;;;;5103211;28;20538;-78
2021/05/10 03:35:17;;;;;;;86.28;15.95;;;9.40;99.90;;;;;;5100874;28;20199;-78
2021/05/10 03:37:44;;;;;;;378.27;25.70;;;9.30;99.90;;;;;;5102751;28;20191;-78
2021/05/10 03:40:12;;;;;;;151.73;17.83;;;9.30;99.90;;;;;;5104709;28;20669;-77
2021/05/10 03:42:38;;;;;;;418.27;30.80;;;9.30;99.90;;;;;;5100735;28;20235;-78
2021/05/10 03:45:06;;;;;;;295.60;27.58;;;9.40;99.90;;;;;;5100104;28;20669;-77
2021/05/10 03:47:41;;;;;;;363.13;28.30;;;9.30;99.90;;;;;;5099092;28;20191;-78
2021/05/10 03:50:10;;;;;;;403.48;28.65;;;9.40;99.90;;;;;;5100333;28;20206;-78
2021/05/10 03:52:37;;;;;;;225.50;23.27;;;9.40;99.90;;;;;;5103383;28;20212;-77
2021/05/10 03:55:03;;;;;;;401.90;32.25;;;9.40;99.90;;;;;;5083115;28;20373;-78
2021/05/10 03:57:29;;;;;;;307.50;27.52;;;9.40;99.90;;;;;;5102144;28;20188;-77
2021/05/10 03:59:54;;;;;;;295.83;27.90;;;9.50;99.90;;;;;;5101542;28;20206;-78
2021/05/10 04:02:21;;;;;;;162.10;20.90;;;9.50;99.90;;;;;;5099222;28;20211;-78
2021/05/10 04:04:56;;;;;;;58.28;15.85;;;9.60;99.90;;;;;;5080330;28;20767;-78
2021/05/10 04:15:22;;;;;;;272.55;28.33;;;9.80;99.90;;;;;;5072144;28;20266;-78
2021/05/10 04:17:48;;;;;;;376.85;32.35;;;9.90;99.90;;;;;;5083022;28;20224;-77
2021/05/10 04:20:14;;;;;;;58.67;18.55;;;9.90;99.90;;;;;;5065994;28;20196;-78
2021/05/10 04:22:39;;;;;;;474.92;36.97;;;10.00;99.90;;;;;;5082058;28;20415;-77
2021/05/10 04:25:06;;;;;;;534.75;39.60;;;10.00;99.90;;;;;;5080998;28;20219;-77
2021/05/10 04:27:32;;;;;;;159.05;23.60;;;10.10;99.90;;;;;;5082004;28;20200;-78
2021/05/10 04:29:58;;;;;;;359.77;30.65;;;10.10;99.90;;;;;;5076303;28;20337;-78
2021/05/10 04:32:23;;;;;;;315.27;29.15;;;10.20;99.90;;;;;;5081944;28;20199;-77
2021/05/10 04:34:49;;;;;;;419.80;30.55;;;10.20;99.90;;;;;;5071606;28;20193;-78
2021/05/10 04:37:15;;;;;;;378.02;29.98;;;10.30;99.90;;;;;;5073116;28;20203;-77
2021/05/10 04:39:41;;;;;;;434.50;30.85;;;10.30;99.90;;;;;;5073487;28;20330;-77
2021/05/10 04:42:06;;;;;;;316.42;27.58;;;10.40;99.90;;;;;;5083623;28;20652;-77
2021/05/10 04:44:32;;;;;;;345.15;28.27;;;10.40;99.90;;;;;;5078381;28;20228;-77
2021/05/10 04:46:58;;;;;;;351.45;28.45;;;10.50;99.90;;;;;;5080723;28;20214;-77
2021/05/10 04:49:23;;;;;;;212.07;21.13;;;10.50;99.90;;;;;;5080664;28;20330;-77
2021/05/10 04:51:49;;;;;;;370.75;27.67;;;10.60;99.90;;;;;;5080651;28;20215;-77
2021/05/10 04:54:15;;;;;;;195.30;23.63;;;10.60;99.90;;;;;;5082468;28;20788;-77
2021/05/10 04:56:41;;;;;;;222.85;25.88;;;10.70;99.90;;;;;;5079171;28;20217;-77
2021/05/10 04:59:06;;;;;;;78.18;18.02;;;10.80;99.90;;;;;;5073808;28;20196;-77
2021/05/10 05:01:32;;;;;;;189.15;22.75;;;10.90;99.90;;;;;;5072993;28;20192;-77
2021/05/10 05:03:58;;;;;;;134.63;20.30;;;11.00;99.90;;;;;;5076733;28;20224;-77
2021/05/10 05:06:23;;;;;;;141.88;19.30;;;11.00;99.90;;;;;;5079784;28;20755;-76
2021/05/10 05:08:49;;;;;;;133.65;17.00;;;11.10;99.90;;;;;;5075649;28;20787;-77
2021/05/10 05:11:15;;;;;;;118.53;17.50;;;11.20;99.90;;;;;;5079186;28;20236;-77
2021/05/10 05:13:40;;;;;;;103.65;15.65;;;11.20;99.90;;;;;;5077569;28;20192;-77
2021/05/10 05:16:06;;;;;;;127.28;18.85;;;11.20;99.90;;;;;;5078245;28;20672;-77
2021/05/10 05:18:32;;;;;;;77.88;15.23;;;11.20;99.90;;;;;;5053892;28;20833;-77
2021/05/10 05:20:57;;;;;;;73.50;14.20;;;11.30;99.90;;;;;;5082681;28;20216;-77
2021/05/10 05:23:25;;;;;;;85.22;14.82;;;11.30;99.90;;;;;;5060350;28;20196;-77
2021/05/10 05:26:02;;;;;;;119.15;17.88;;;11.30;99.90;;;;;;5077636;28;20311;-77
2021/05/10 05:28:29;;;;;;;47.40;12.60;;;11.30;99.90;;;;;;5080430;28;20192;-77
2021/05/10 05:30:56;;;;;;;78.22;14.70;;;11.30;99.90;;;;;;5077319;28;20260;-77
2021/05/10 05:33:21;;;;;;;172.20;19.00;;;11.20;99.90;;;;;;5064505;28;20627;-77
2021/05/10 05:35:47;;;;;;;100.25;15.98;;;11.30;99.90;;;;;;5081674;28;20201;-77
2021/05/10 05:38:13;;;;;;;107.63;16.20;;;11.20;99.90;;;;;;5080299;28;20561;-77
2021/05/10 05:40:41;;;;;;;66.55;15.18;;;11.20;99.90;;;;;;5077316;28;20196;-77
2021/05/10 05:43:08;;;;;;;82.10;14.93;;;11.20;99.90;;;;;;5079490;28;20599;-77
2021/05/10 05:45:38;;;;;;;23.90;11.93;;;11.10;99.90;;;;;;5073914;28;20200;-77
2021/05/10 05:48:05;;;;;;;36.60;13.32;;;11.20;99.90;;;;;;5079713;28;20192;-77
2021/05/10 05:50:34;;;;;;;24.88;12.35;;;11.20;99.90;;;;;;5072849;28;20210;-77
2021/05/10 05:53:00;;;;;;;161.63;20.83;;;11.10;99.90;;;;;;5077133;28;20208;-77
2021/05/10 05:55:27;;;;;;;107.13;18.70;;;11.20;99.90;;;;;;5076995;28;20196;-77
2021/05/10 05:57:53;;;;;;;122.15;18.17;;;11.20;99.90;;;;;;5081480;28;20196;-77
2021/05/10 06:00:20;;;;;;;229.65;22.30;;;11.20;99.90;;;;;;5066161;28;20551;-77
2021/05/10 06:02:45;;;;;;;65.40;16.83;;;11.30;99.90;;;;;;5077200;28;20338;-77
2021/05/10 06:05:12;;;;;;;71.03;15.95;;;11.30;99.90;;;;;;5072269;28;20223;-77
2021/05/10 06:07:43;;;;;;;53.20;15.52;;;11.30;99.90;;;;;;5077316;28;20202;-77
2021/05/10 06:10:11;;;;;;;49.25;16.05;;;11.40;99.90;;;;;;5063654;28;20219;-77
2021/05/10 06:12:38;;;;;;;38.22;14.25;;;11.50;99.90;;;;;;5083016;28;20223;-77
2021/05/10 06:15:05;;;;;;;23.98;13.18;;;11.60;99.90;;;;;;5080571;28;20280;-77
2021/05/10 06:17:31;;;;;;;22.45;12.23;;;11.80;99.90;;;;;;5081687;28;20214;-77
2021/05/10 06:19:57;;;;;;;24.75;12.73;;;11.90;99.90;;;;;;5082001;28;20204;-77
2021/05/10 06:22:22;;;;;;;21.00;12.05;;;12.00;99.90;;;;;;5081754;28;20271;-77
2021/05/10 06:24:48;;;;;;;20.75;11.45;;;12.20;99.90;;;;;;5079154;28;20193;-77
2021/05/10 06:27:14;;;;;;;20.45;11.35;;;12.40;99.90;;;;;;5079980;28;20582;-77
2021/05/10 06:29:40;;;;;;;17.83;10.77;;;12.70;99.90;;;;;;5079886;28;20266;-77
2021/05/10 06:32:05;;;;;;;14.75;9.50;;;13.00;99.90;;;;;;5081873;28;20211;-77
2021/05/10 06:34:31;;;;;;;15.02;9.60;;;13.20;99.90;;;;;;5076723;28;20188;-77
2021/05/10 06:36:57;;;;;;;14.00;9.07;;;13.30;99.90;;;;;;5082242;28;20196;-77
2021/05/10 06:39:24;;;;;;;13.70;8.27;;;13.60;99.90;;;;;;5079199;28;20660;-77
2021/05/10 06:41:49;;;;;;;12.25;8.32;;;13.80;99.90;;;;;;5084769;28;20226;-77
2021/05/10 06:44:15;;;;;;;13.55;8.63;;;13.80;99.90;;;;;;5082200;28;20196;-77
2021/05/10 06:46:41;;;;;;;10.60;7.57;;;13.80;99.90;;;;;;5076322;28;20200;-77
2021/05/10 06:49:06;;;;;;;14.10;7.53;;;13.70;99.90;;;;;;5080168;28;20232;-77
2021/05/10 06:51:33;;;;;;;11.52;7.20;;;13.60;99.90;;;;;;5079790;28;20206;-77
2021/05/10 06:53:58;;;;;;;12.70;8.70;;;13.50;99.90;;;;;;5081279;28;20200;-77
2021/05/10 06:56:24;;;;;;;13.38;8.27;;;13.30;99.90;;;;;;5081174;28;20681;-77
2021/05/10 06:58:50;;;;;;;13.80;8.30;;;13.20;99.90;;;;;;5081352;28;20195;-77
2021/05/10 07:01:16;;;;;;;13.95;8.48;;;13.10;99.90;;;;;;5079842;28;20211;-77
2021/05/10 07:03:41;;;;;;;13.68;8.52;;;13.00;99.90;;;;;;5082684;28;20991;-77
2021/05/10 07:06:07;;;;;;;16.40;9.82;;;13.00;99.90;;;;;;5100849;28;20287;-77
2021/05/10 07:08:33;;;;;;;17.08;9.95;;;12.90;99.90;;;;;;5082332;28;20211;-77
2021/05/10 07:10:59;;;;;;;15.00;8.45;;;12.90;99.90;;;;;;5101201;28;20752;-77
2021/05/10 07:13:24;;;;;;;17.10;8.43;;;13.10;99.90;;;;;;5099645;28;20238;-77
2021/05/10 07:15:50;;;;;;;14.02;8.90;;;13.10;99.90;;;;;;5101475;28;20206;-77
2021/05/10 07:18:18;;;;;;;11.98;7.88;;;13.30;99.90;;;;;;5103488;28;20227;-77
2021/05/10 07:20:45;;;;;;;9.68;6.80;;;13.50;99.90;;;;;;5082497;28;20722;-78
2021/05/10 07:23:13;;;;;;;10.48;6.40;;;13.80;99.90;;;;;;5102143;28;20199;-77
2021/05/10 07:25:47;;;;;;;11.98;7.00;;;14.00;99.90;;;;;;5098356;28;20669;-77
2021/05/10 07:28:15;;;;;;;12.60;7.28;;;14.20;99.90;;;;;;5100702;28;20723;-77
2021/05/10 07:30:41;;;;;;;10.52;6.15;;;14.20;99.90;;;;;;5080055;28;20206;-77
2021/05/10 07:33:07;;;;;;;9.88;6.10;;;14.20;99.90;;;;;;5102162;28;20234;-77
2021/05/10 07:35:33;;;;;;;11.10;7.07;;;14.20;99.90;;;;;;5080090;28;20200;-77
2021/05/10 07:37:59;;;;;;;9.13;6.28;;;14.10;99.90;;;;;;5080227;28;20196;-77
2021/05/10 07:40:25;;;;;;;11.95;6.78;;;14.10;99.90;;;;;;5082156;28;20237;-78
2021/05/10 07:42:52;;;;;;;8.82;6.03;;;14.10;99.90;;;;;;5082405;28;20685;-77
2021/05/10 07:45:19;;;;;;;8.32;6.00;;;14.10;99.90;;;;;;5082720;28;20203;-77
2021/05/10 07:47:48;;;;;;;10.15;6.32;;;14.00;99.90;;;;;;5083399;28;20240;-77
2021/05/10 07:50:14;;;;;;;8.35;6.07;;;14.10;99.90;;;;;;5098657;28;20211;-77
2021/05/10 07:52:40;;;;;;;8.35;5.65;;;14.20;99.90;;;;;;5080113;28;20688;-77
2021/05/10 07:55:06;;;;;;;8.05;5.70;;;14.30;99.90;;;;;;5083182;28;20260;-77
2021/05/10 07:57:32;;;;;;;8.88;5.22;;;14.40;99.90;;;;;;5101308;28;20202;-77
2021/05/10 07:59:58;;;;;;;6.22;4.68;;;14.60;99.90;;;;;;5083920;28;20195;-77
2021/05/10 08:02:23;;;;;;;7.63;4.85;;;14.80;99.90;;;;;;5080048;28;20203;-77
2021/05/10 08:04:53;;;;;;;7.55;4.32;;;15.00;99.90;;;;;;5077119;28;20220;-78
2021/05/10 08:07:19;;;;;;;6.03;4.10;;;15.20;99.90;;;;;;5079502;28;20196;-78
2021/05/10 08:09:45;;;;;;;6.70;4.38;;;15.40;99.90;;;;;;5073213;28;20196;-77
2021/05/10 08:12:15;;;;;;;6.32;3.85;;;15.50;99.90;;;;;;5079896;28;20204;-77
2021/05/10 08:14:41;;;;;;;6.25;4.18;;;15.80;99.90;;;;;;5078953;28;20196;-77
2021/05/10 08:17:07;;;;;;;5.15;3.88;;;16.00;99.90;;;;;;5073170;28;20631;-77
2021/05/10 08:19:33;;;;;;;6.10;4.10;;;16.10;99.90;;;;;;5054691;28;20227;-77
2021/05/10 08:22:00;;;;;;;8.00;3.75;;;16.20;99.90;;;;;;5047645;28;20560;-78
2021/05/10 08:24:26;;;;;;;5.00;3.80;;;16.10;99.90;;;;;;5075607;28;20203;-78
2021/05/10 08:26:52;;;;;;;5.28;3.55;;;16.10;99.90;;;;;;5077194;28;20200;-78
2021/05/10 08:29:18;;;;;;;5.32;3.92;;;16.20;99.90;;;;;;5068119;28;20290;-78
2021/05/10 08:31:45;;;;;;;5.47;4.00;;;16.30;99.90;;;;;;5081170;28;20366;-78
2021/05/10 08:34:11;;;;;;;5.85;4.18;;;16.20;99.90;;;;;;5071664;28;20192;-78
2021/05/10 08:36:37;;;;;;;5.82;4.03;;;16.10;99.90;;;;;;5052943;28;20286;-78
2021/05/10 08:39:06;;;;;;;7.65;3.80;;;15.90;99.90;;;;;;5078754;28;20303;-78
2021/05/10 08:41:32;;;;;;;5.55;3.97;;;15.90;99.90;;;;;;5058312;28;20197;-78
2021/05/10 08:43:58;;;;;;;6.53;3.88;;;15.90;99.90;;;;;;5071188;28;20222;-78
2021/05/10 08:46:24;;;;;;;4.85;3.83;;;15.80;99.90;;;;;;5072812;28;20199;-78
2021/05/10 08:48:50;;;;;;;17.42;9.95;;;15.80;99.90;;;;;;5056466;28;20243;-77
2021/05/10 08:51:18;;;;;;;5.57;4.30;;;16.00;99.90;;;;;;5069443;28;20294;-78
2021/05/10 08:53:44;;;;;;;5.32;3.70;;;15.90;99.90;;;;;;5077574;28;20794;-77
2021/05/10 08:56:11;;;;;;;7.20;3.30;;;15.80;99.90;;;;;;5073487;28;20221;-77
2021/05/10 08:58:37;;;;;;;8.73;3.50;;;15.70;99.90;;;;;;5092671;28;20200;-78
2021/05/10 09:01:04;;;;;;;5.57;3.78;;;15.70;99.90;;;;;;5076682;28;20200;-78
2021/05/10 09:03:41;;;;;;;7.03;4.00;;;15.80;99.90;;;;;;5066849;28;20193;-78
2021/05/10 09:06:11;;;;;;;5.60;3.97;;;15.90;99.90;;;;;;5068721;28;20231;-78
2021/05/10 09:08:44;;;;;;;6.30;3.95;;;15.90;99.90;;;;;;5076758;28;20263;-78
2021/05/10 09:11:13;;;;;;;8.60;4.35;;;15.90;99.90;;;;;;5070615;28;20287;-78
2021/05/10 09:13:44;;;;;;;5.63;3.97;;;16.10;99.90;;;;;;5080278;28;20200;-78
2021/05/10 09:16:12;;;;;;;7.40;3.83;;;16.20;99.90;;;;;;5070922;28;20207;-78
2021/05/10 09:18:49;;;;;;;6.68;4.18;;;16.10;99.90;;;;;;5072417;28;20193;-78
2021/05/10 09:21:17;;;;;;;10.90;3.90;;;16.10;99.90;;;;;;5088323;28;20211;-78
2021/05/10 09:23:44;;;;;;;7.25;3.88;;;16.30;99.90;;;;;;5084994;28;20582;-78
2021/05/10 09:26:13;;;;;;;5.75;3.88;;;16.50;99.90;;;;;;5075969;28;20201;-78
2021/05/10 09:28:44;;;;;;;6.60;3.92;;;16.60;99.90;;;;;;5085298;28;20200;-78
2021/05/10 09:31:11;;;;;;;12.02;5.50;;;16.60;99.90;;;;;;5077600;28;20204;-78
2021/05/10 09:33:46;;;;;;;5.75;4.05;;;16.40;99.90;;;;;;5078689;28;20203;-77
2021/05/10 09:36:32;;;;;;;13.20;7.22;;;16.10;99.90;;;;;;5076882;28;20623;-78
2021/05/10 09:38:59;;;;;;;20.70;10.85;;;15.80;99.90;;;;;;5058549;28;21061;-77
2021/05/10 09:41:25;;;;;;;9.40;5.13;;;15.60;99.90;;;;;;5087278;28;20242;-77
2021/05/10 09:44:00;;;;;;;8.80;4.72;;;15.40;99.90;;;;;;5077990;28;20224;-78
2021/05/10 09:46:40;;;;;;;12.05;7.00;;;15.20;99.90;;;;;;5085427;28;20199;-77
2021/05/10 09:49:07;;;;;;;14.48;6.78;;;15.20;99.90;;;;;;5083697;28;20200;-77
2021/05/10 09:51:34;;;;;;;15.90;9.23;;;15.10;99.90;;;;;;5073308;28;20218;-77
2021/05/10 09:54:08;;;;;;;7.78;5.03;;;15.10;99.90;;;;;;5079091;28;20196;-77
2021/05/10 09:56:35;;;;;;;14.13;5.30;;;15.10;99.90;;;;;;5081336;28;20282;-77
2021/05/10 09:59:03;;;;;;;8.93;5.20;;;15.10;99.90;;;;;;5083218;28;20196;-77
2021/05/10 10:01:45;;;;;;;22.75;9.65;;;15.00;99.90;;;;;;5084105;28;20279;-78
2021/05/10 10:04:12;;;;;;;27.15;10.63;;;14.90;99.90;;;;;;5085380;28;20258;-77
2021/05/10 10:06:38;;;;;;;101.93;41.95;;;15.00;99.90;;;;;;5083339;28;20283;-77
2021/05/10 10:09:05;;;;;;;20.45;10.35;;;15.00;99.90;;;;;;5082673;28;20685;-77
2021/05/10 10:11:31;;;;;;;14.40;8.13;;;15.00;99.90;;;;;;5081628;28;20747;-77
2021/05/10 10:13:57;;;;;;;9.32;6.10;;;15.00;99.90;;;;;;5081853;28;20192;-78
2021/05/10 10:16:29;;;;;;;11.40;5.95;;;14.90;99.90;;;;;;5085088;28;20196;-77
2021/05/10 10:18:59;;;;;;;11.75;6.53;;;14.90;99.90;;;;;;5079123;28;20562;-77
2021/05/10 10:21:26;;;;;;;14.23;8.82;;;14.90;99.90;;;;;;5078405;28;20896;-77
2021/05/10 10:24:00;;;;;;;17.38;8.63;;;14.80;99.90;;;;;;5083560;28;20210;-78
2021/05/10 10:26:27;;;;;;;18.90;10.32;;;14.70;99.90;;;;;;5081578;28;20674;-77
2021/05/10 10:28:53;;;;;;;12.20;7.88;;;14.70;99.90;;;;;;5083011;28;20200;-77
2021/05/10 10:31:31;;;;;;;13.35;7.60;;;14.70;99.90;;;;;;5070069;28;20214;-78
2021/05/10 10:34:29;;;;;;;12.35;6.28;;;14.80;99.90;;;;;;5083384;28;20203;-77
2021/05/10 10:37:01;;;;;;;26.08;15.27;;;14.70;99.90;;;;;;5080002;28;20196;-77
2021/05/10 10:39:30;;;;;;;12.40;6.93;;;14.70;99.90;;;;;;5081764;28;20211;-78
2021/05/10 10:42:25;;;;;;;8.38;6.28;;;14.70;99.90;;;;;;5082456;28;20200;-78
2021/05/10 10:45:00;;;;;;;10.70;5.82;;;15.00;99.90;;;;;;5084400;28;20732;-77
2021/05/10 10:47:45;;;;;;;9.35;5.97;;;15.70;99.90;;;;;;5080103;28;20196;-77
2021/05/10 10:50:15;;;;;;;8.55;5.15;;;16.40;99.90;;;;;;5082896;28;20764;-77
2021/05/10 10:52:56;;;;;;;7.10;4.85;;;17.00;99.90;;;;;;5082806;28;20211;-77
2021/05/10 10:55:31;;;;;;;7.00;4.72;;;17.80;99.90;;;;;;5081448;28;20189;-77
2021/05/10 10:58:12;;;;;;;6.90;4.70;;;18.10;99.90;;;;;;5078148;28;20196;-77
2021/05/10 11:01:06;;;;;;;7.55;4.40;;;18.30;99.90;;;;;;5093457;28;20196;-77
2021/05/10 11:03:34;;;;;;;5.65;3.90;;;18.50;99.90;;;;;;5074900;28;20207;-77
2021/05/10 11:06:01;;;;;;;9.77;4.90;;;18.80;99.90;;;;;;5081237;28;20208;-78
2021/05/10 11:08:47;;;;;;;9.15;4.80;;;18.80;99.90;;;;;;5083645;28;20612;-77
2021/05/10 11:11:37;;;;;;;5.95;4.38;;;18.90;99.90;;;;;;5081955;28;20560;-78
2021/05/10 11:14:04;;;;;;;7.05;3.95;;;19.30;99.90;;;;;;5063068;28;20204;-77
2021/05/10 11:16:52;;;;;;;9.57;4.40;;;19.90;99.90;;;;;;5079821;28;20628;-78
2021/05/10 11:19:27;;;;;;;6.10;4.38;;;20.30;99.90;;;;;;5083303;28;20207;-78
2021/05/10 11:21:52;;;;;;;5.93;4.43;;;20.10;99.90;;;;;;5080462;28;20836;-78
2021/05/10 11:24:26;;;;;;;8.52;4.70;;;19.80;99.90;;;;;;5073735;28;20280;-77
2021/05/10 11:26:52;;;;;;;8.90;4.47;;;19.60;99.90;;;;;;5085075;28;20192;-78
2021/05/10 11:29:26;;;;;;;7.72;3.75;;;19.40;99.90;;;;;;5083160;28;20196;-78
2021/05/10 11:32:19;;;;;;;5.25;3.83;;;19.40;99.90;;;;;;5072613;28;20224;-78
2021/05/10 11:34:46;;;;;;;8.38;4.18;;;19.60;99.90;;;;;;5044721;28;20193;-77
2021/05/10 11:37:12;;;;;;;10.57;4.07;;;19.40;99.90;;;;;;5059485;28;20204;-77
2021/05/10 11:39:39;;;;;;;4.43;3.67;;;19.40;99.90;;;;;;5078790;28;20667;-77
2021/05/10 11:42:06;;;;;;;6.03;3.60;;;19.60;99.90;;;;;;5072026;28;20286;-77
2021/05/10 11:44:38;;;;;;;9.25;4.15;;;19.90;99.90;;;;;;5069101;28;20197;-78
2021/05/10 11:47:05;;;;;;;4.95;3.55;;;20.00;99.90;;;;;;5053554;28;20200;-78
2021/05/10 11:49:39;;;;;;;4.85;3.50;;;20.00;99.90;;;;;;5067965;28;20193;-78
2021/05/10 11:52:08;;;;;;;4.55;3.53;;;19.60;99.90;;;;;;5063912;28;20238;-77
2021/05/10 11:54:35;;;;;;;9.57;3.58;;;19.30;99.90;;;;;;5083458;28;20192;-78
2021/05/10 11:57:04;;;;;;;7.35;3.90;;;19.20;99.90;;;;;;5082231;28;20193;-78
2021/05/10 11:59:45;;;;;;;13.15;4.00;;;19.00;99.90;;;;;;5081192;28;20192;-78
2021/05/10 12:02:14;;;;;;;7.55;4.13;;;19.00;99.90;;;;;;5065069;28;20193;-77
2021/05/10 12:04:54;;;;;;;7.82;3.90;;;18.70;99.90;;;;;;5070202;28;20220;-78
2021/05/10 12:07:22;;;;;;;7.18;3.55;;;18.60;99.90;;;;;;5046759;28;20635;-78
2021/05/10 12:09:58;;;;;;;6.60;3.80;;;18.60;99.90;;;;;;5073500;28;20666;-77
2021/05/10 12:12:26;;;;;;;6.43;4.50;;;18.60;99.90;;;;;;5078547;28;20207;-78
2021/05/10 12:14:55;;;;;;;7.43;4.20;;;18.60;99.90;;;;;;5071438;28;20207;-78
2021/05/10 12:17:26;;;;;;;8.15;4.00;;;18.80;99.90;;;;;;5082986;28;20291;-77
2021/05/10 12:20:06;;;;;;;5.78;3.90;;;18.80;99.90;;;;;;5071050;28;20185;-78
2021/05/10 12:22:34;;;;;;;8.55;4.00;;;19.00;99.90;;;;;;5060826;28;20200;-77
2021/05/10 12:25:05;;;;;;;9.27;3.90;;;19.20;99.90;;;;;;5081587;28;20195;-79
2021/05/10 12:27:34;;;;;;;7.80;4.10;;;19.10;99.90;;;;;;5079674;28;20200;-77
2021/05/10 12:30:00;;;;;;;7.45;3.67;;;19.00;99.90;;;;;;5075865;28;20197;-77
2021/05/10 12:32:25;;;;;;;5.35;3.65;;;18.80;99.90;;;;;;5078523;28;20218;-77
2021/05/10 12:34:51;;;;;;;7.03;3.70;;;18.80;99.90;;;;;;5077724;28;20200;-77
2021/05/10 12:37:18;;;;;;;6.15;3.95;;;18.70;99.90;;;;;;5083025;28;20302;-77
2021/05/10 12:39:45;;;;;;;6.15;3.90;;;18.80;99.90;;;;;;5082325;28;20207;-77
2021/05/10 12:42:11;;;;;;;5.57;3.53;;;18.90;99.90;;;;;;5083212;28;20204;-77
2021/05/10 12:44:37;;;;;;;9.20;3.78;;;19.30;99.90;;;;;;5085415;28;20560;-77
2021/05/10 12:47:03;;;;;;;7.63;3.92;;;19.60;99.90;;;;;;5085610;28;20196;-78